• Join FlightAware (Why Join?)
  • Login
  • US Flag 
06:05PM EDT


 

Airport Tracker/Info


-or-


 

Live Flight TrackerFlight Track Log ✈ SWA378 ✈ 13-May-2013 ✈ KATL - KORF

Flight Track Log - Related Links

Times and Time Zones

All times are in EDT time to prevent confusion due to time zone crossing. See the SWA378 flight status page for this flight to view local times or setup timezone preferences in your user account.

Time Position Orientation Groundspeed Altitude Reporting Facility
EDT Latitude Longitude Course Direction KTS MPH feet Rate Location/Type
06:49PM 33.6328 -84.4731 101° East 447 514 2,700  Level Atlanta Center
06:50PM 33.6167 -84.5000 234° Southwest 213 245 4,300 3,480 Climbing Atlanta TRACON
06:51PM 33.5833 -84.5833 244° Southwest 288 331 8,000 2,520 Climbing Atlanta TRACON
06:53PM 33.4556 -84.4247 134° Southeast 256 295 13,400 2,100 Climbing Atlanta Center
06:54PM 33.4581 -84.2903 89° East 347 399 15,400 2,280 Climbing Atlanta Center
06:55PM 33.6527 -83.6495 101° East  Level FlightAware Approximate
06:55PM 33.5042 -84.1608 67° East 382 440 18,000  Level Atlanta Center
06:56PM 33.5606 -84.0289 63° Northeast 413 475 20,400 2,580 Climbing Atlanta Center
06:57PM 33.6106 -83.8892 67° East 439 505 23,200 2,400 Climbing Atlanta Center
06:58PM 33.6414 -83.7369 76° East 461 531 25,300 2,100 Climbing Atlanta Center
06:59PM 33.6847 -83.5819 71° East 473 544 27,500 2,340 Climbing Atlanta Center
07:00PM 33.7406 -83.4442 64° Northeast 467 537 30,000 2,280 Climbing Atlanta Center
07:01PM 33.7961 -83.3039 64° Northeast 460 529 32,100 1,620 Climbing Atlanta Center
07:02PM 33.8517 -83.1658 64° Northeast 455 524 33,300 1,200 Climbing Atlanta Center
07:03PM 33.9131 -83.0175 63° Northeast 473 544 34,600 1,620 Climbing Atlanta Center
07:04PM 33.9683 -82.8742 65° Northeast 473 544 36,600 1,440 Climbing Atlanta Center
07:05PM 34.0253 -82.7306 64° Northeast 468 539 37,500 840 Climbing Atlanta Center
07:06PM 34.0758 -82.6017 65° Northeast 463 533 38,300 720 Climbing Atlanta Center
07:07PM 34.1386 -82.4450 64° Northeast 469 540 39,000 300 Climbing Atlanta Center
07:08PM 34.1953 -82.3008 65° Northeast 469 540 39,000  Level Atlanta Center
07:09PM 34.2514 -82.1539 65° Northeast 469 540 39,000  Level Atlanta Center
07:10PM 34.3203 -82.0217 58° Northeast 469 540 39,000  Level Atlanta Center
07:11PM 34.3869 -81.8892 59° Northeast 464 534 39,000  Level Atlanta Center
07:12PM 34.4533 -81.7514 60° Northeast 464 534 39,000  Level Atlanta Center
07:13PM 34.5197 -81.6161 59° Northeast 459 528 39,000  Level Atlanta Center
07:14PM 34.5858 -81.4803 59° Northeast 459 528 39,000  Level Atlanta Center
07:15PM 34.6517 -81.3494 59° Northeast 459 528 39,000  Level Atlanta Center
07:16PM 34.7217 -81.2108 58° Northeast 464 534 39,000  Level Atlanta Center
07:17PM 34.7894 -81.0694 60° Northeast 476 548 39,000  Level Atlanta Center
07:18PM 34.8589 -80.9253 60° Northeast 482 555 39,000  Level Atlanta Center
07:19PM 34.9281 -80.7833 59° Northeast 482 555 39,000  Level Atlanta Center
07:20PM 34.9972 -80.6411 59° Northeast 487 560 39,000  Level Atlanta Center
07:21PM 35.0703 -80.4936 59° Northeast 493 567 39,000 -180 Level Atlanta Center
07:22PM 35.1311 -80.3639 60° Northeast 493 567 38,700 -660 Descending Atlanta Center
07:25PM 35.2778 -80.0547 60° Northeast 476 548 37,000 -600 Descending Washington Center
07:26PM 35.3456 -79.9158 59° Northeast 469 540 37,000  Level Washington Center
07:27PM 35.4131 -79.7742 60° Northeast 469 540 37,000  Level Washington Center
07:28PM 35.4725 -79.6242 64° Northeast 474 545 37,000 -60 Level Washington Center
07:29PM 35.5175 -79.4606 71° East 488 562 36,900 -600 Descending Washington Center
07:30PM 35.5603 -79.2994 72° East 495 570 35,900 -960 Descending Washington Center
07:31PM 35.6028 -79.1403 72° East 490 564 35,000 -1,020 Descending Washington Center
07:32PM 35.6469 -78.9814 71° East 490 564 33,900 -1,020 Descending Washington Center
07:33PM 35.6819 -78.8525 71° East 490 564 33,100 -960 Descending Washington Center
07:34PM 35.7281 -78.6803 72° East 490 564 32,100 -1,080 Descending Washington Center
07:35PM 35.7675 -78.5231 73° East 490 564 31,000 -1,080 Descending Washington Center
07:36PM 35.8067 -78.3733 72° East 473 544 30,000 -1,440 Descending Washington Center
07:37PM 35.8433 -78.2311 72° East 454 522 28,200 -2,040 Descending Washington Center
07:38PM 35.8819 -78.0864 72° East 440 506 25,900 -2,580 Descending Washington Center
07:39PM 35.9203 -77.9389 72° East 435 501 23,000 -2,520 Descending Washington Center
07:40PM 35.9564 -77.7886 73° East 441 507 21,000 -1,020 Descending Washington Center
07:41PM 36.0028 -77.6511 67° East 441 507 21,000  Level Washington Center
07:42PM 36.0653 -77.5242 59° Northeast 435 501 21,000  Level Washington Center
07:43PM 36.1278 -77.3947 59° Northeast 429 494 21,000  Level Washington Center
07:44PM 36.1839 -77.2672 61° Northeast 429 494 21,000 -1,140 Level Washington Center
07:45PM 36.2528 -77.1219 60° Northeast 429 494 18,800 -2,220 Descending Washington Center
07:45PM 36.2978 -77.0300 59° Northeast 417 480 17,000 -2,400 Descending Washington Center
07:47PM 36.3681 -76.8817 59° Northeast 413 475 14,100 -2,400 Descending Washington Center
07:48PM 36.4400 -76.7900 46° Northeast 370 426 11,700 -1,980 Descending Washington Center
07:49PM 36.5014 -76.6953 51° Northeast 365 420 10,200 -1,620 Descending Washington Center
07:49PM 36.5542 -76.6261 46° Northeast 295 339 8,600 -1,920 Descending Washington Center
07:51PM 36.6092 -76.5417 51° Northeast 297 342 6,500 -2,040 Descending Washington Center
07:52PM 36.6619 -76.4644 50° Northeast 285 328 4,600 -1,440 Descending Washington Center
07:53PM 36.6997 -76.4106 49° Northeast 274 315 3,700 -1,260 Descending Washington Center
07:54PM 36.7525 -76.3386 48° Northeast 247 284 2,100 -900 Descending Washington Center
07:55PM 36.7944 -76.2975 38° Northeast 212 244 2,000 -360 Descending Washington Center
07:56PM 36.8364 -76.2614 35° Northeast 151 174 1,400 -720 Descending Washington Center
07:57PM 36.8700 -76.2281 38° Northeast 141 162 400 -900 Descending Washington Center